createdAt,value
2023-03-06T00:02:33.920Z,10.45
2023-03-06T00:06:35.508Z,9.25
2023-03-06T00:10:37.960Z,8.65
2023-03-06T00:14:39.506Z,8.70
2023-03-06T00:18:41.757Z,7.47
2023-03-06T00:22:43.922Z,8.52
2023-03-06T00:26:45.682Z,12.20
2023-03-06T00:30:47.574Z,9.82
2023-03-06T00:34:50.532Z,10.80
2023-03-06T00:38:52.141Z,10.50
2023-03-06T00:42:53.702Z,12.07
2023-03-06T00:46:55.269Z,10.43
2023-03-06T00:50:56.813Z,12.00
2023-03-06T00:54:58.365Z,9.68
2023-03-06T00:58:59.909Z,9.98
2023-03-06T01:03:01.527Z,9.00
2023-03-06T01:07:03.238Z,10.27
2023-03-06T01:11:05.922Z,11.57
2023-03-06T01:15:08.147Z,12.20
2023-03-06T01:19:09.730Z,10.47
2023-03-06T01:23:11.269Z,13.00
2023-03-06T01:27:12.806Z,11.20
2023-03-06T01:31:14.654Z,11.30
2023-03-06T01:35:16.392Z,11.40
2023-03-06T01:39:18.003Z,10.68
2023-03-06T01:43:27.148Z,11.18
2023-03-06T01:47:29.290Z,9.57
2023-03-06T01:51:36.388Z,10.70
2023-03-06T01:55:38.972Z,10.65
2023-03-06T01:59:42.754Z,7.60
2023-03-06T02:03:47.357Z,11.80
2023-03-06T02:07:50.485Z,9.13
2023-03-06T02:11:52.161Z,9.70
2023-03-06T02:15:53.790Z,11.32
2023-03-06T02:20:13.772Z,11.05
2023-03-06T02:24:38.877Z,10.68
2023-03-06T02:28:40.865Z,11.90
2023-03-06T02:32:42.434Z,13.85
2023-03-06T02:36:53.864Z,14.35
2023-03-06T02:40:58.112Z,13.88
2023-03-06T02:45:05.684Z,11.10
2023-03-06T02:49:08.041Z,14.63
2023-03-06T02:53:11.285Z,12.25
2023-03-06T02:57:12.884Z,12.73
2023-03-06T03:01:14.991Z,13.73
2023-03-06T03:05:17.858Z,12.00
2023-03-06T03:09:24.608Z,11.80
2023-03-06T03:13:26.542Z,15.68
2023-03-06T03:17:28.192Z,14.15
2023-03-06T03:21:29.768Z,15.68
2023-03-06T03:25:31.543Z,12.35
2023-03-06T03:29:33.350Z,14.52
2023-03-06T03:33:35.164Z,13.02
2023-03-06T03:37:37.463Z,12.67
2023-03-06T03:41:39.711Z,11.20
2023-03-06T03:45:43.392Z,16.40
2023-03-06T03:49:45.333Z,14.82
2023-03-06T03:53:47.654Z,15.40
2023-03-06T03:57:53.432Z,11.52
2023-03-06T04:01:56.149Z,12.75
2023-03-06T04:05:59.351Z,14.07
2023-03-06T04:10:04.098Z,13.02
2023-03-06T04:14:08.310Z,15.60
2023-03-06T04:18:10.180Z,16.02
2023-03-06T04:22:11.960Z,15.32
2023-03-06T04:26:14.534Z,13.38
2023-03-06T04:30:16.504Z,15.10
2023-03-06T04:34:18.380Z,12.48
2023-03-06T04:38:21.316Z,14.70
2023-03-06T04:42:23.483Z,12.73
2023-03-06T04:46:31.294Z,12.95
2023-03-06T04:50:33.203Z,16.55
2023-03-06T04:54:35.490Z,17.07
2023-03-06T04:58:37.597Z,15.38
2023-03-06T05:02:41.604Z,12.70
2023-03-06T05:06:43.360Z,15.80
2023-03-06T05:10:45.581Z,15.15
2023-03-06T05:14:48.112Z,13.02
2023-03-06T05:18:50.751Z,18.65
2023-03-06T05:22:52.428Z,16.35
2023-03-06T05:26:54.124Z,16.80
2023-03-06T05:30:56.215Z,13.15
2023-03-06T05:34:57.803Z,13.47
2023-03-06T05:38:59.463Z,15.85
2023-03-06T05:43:01.023Z,14.80
2023-03-06T05:47:02.878Z,14.20
2023-03-06T05:51:05.690Z,14.57
2023-03-06T05:55:11.491Z,15.95
2023-03-06T05:59:13.179Z,15.05
2023-03-06T06:03:14.814Z,16.33
2023-03-06T06:07:17.106Z,16.23
2023-03-06T06:11:20.866Z,16.92
2023-03-06T06:15:22.860Z,16.40
2023-03-06T06:19:24.543Z,14.02
2023-03-06T06:23:26.151Z,15.95
2023-03-06T06:27:27.691Z,15.20
2023-03-06T06:31:29.701Z,15.45
2023-03-06T06:35:38.509Z,15.60
2023-03-06T06:39:40.804Z,13.95
2023-03-06T06:43:42.491Z,14.73
2023-03-06T06:47:44.629Z,18.45
2023-03-06T06:51:47.220Z,16.10
2023-03-06T06:55:49.473Z,18.00
2023-03-06T06:59:53.698Z,16.33
2023-03-06T07:03:56.559Z,17.67
2023-03-06T07:07:58.468Z,13.15
2023-03-06T07:12:00.108Z,15.68
2023-03-06T07:16:05.457Z,14.25
2023-03-06T07:20:10.710Z,15.05
2023-03-06T07:24:12.905Z,19.85
2023-03-06T07:28:18.684Z,17.73
2023-03-06T07:32:25.530Z,15.38
2023-03-06T07:36:29.062Z,14.40
2023-03-06T07:40:34.655Z,16.27
2023-03-06T07:44:41.142Z,16.17
2023-03-06T07:48:45.480Z,18.25
2023-03-06T07:56:56.414Z,17.52
2023-03-06T08:01:00.234Z,14.00
2023-03-06T08:05:04.243Z,19.92
2023-03-06T08:09:06.408Z,17.23
2023-03-06T08:13:08.086Z,19.23
2023-03-06T08:17:09.681Z,19.75
2023-03-06T08:21:16.677Z,18.33
2023-03-06T08:25:21.403Z,14.88
2023-03-06T08:29:22.982Z,17.02
2023-03-06T08:33:25.200Z,15.48
2023-03-06T08:37:28.423Z,17.58
2023-03-06T08:41:32.490Z,15.82
2023-03-06T08:45:36.002Z,16.52
2023-03-06T08:49:40.369Z,18.38
2023-03-06T08:53:44.532Z,14.73
2023-03-06T08:57:47.394Z,12.95
2023-03-06T09:01:49.022Z,16.05
2023-03-06T09:05:50.999Z,13.30
2023-03-06T09:09:58.387Z,13.10
2023-03-06T09:14:03.340Z,14.63
2023-03-06T09:18:04.896Z,16.33
2023-03-06T09:26:14.552Z,14.85
2023-03-06T09:30:19.349Z,14.52
2023-03-06T09:34:21.349Z,13.48
2023-03-06T09:38:26.193Z,18.80
2023-03-06T09:42:30.327Z,16.83
2023-03-06T09:46:52.671Z,17.52
2023-03-06T09:51:08.052Z,14.80
2023-03-06T09:55:15.857Z,15.15
2023-03-06T09:59:24.493Z,14.52
2023-03-06T10:03:38.058Z,16.60
2023-03-06T10:08:07.798Z,19.52
2023-03-06T10:12:35.293Z,18.10
2023-03-06T10:16:37.460Z,18.75
2023-03-06T10:20:54.484Z,16.58
2023-03-06T10:25:19.820Z,15.43
2023-03-06T10:29:56.324Z,18.92
2023-03-06T10:34:15.404Z,19.08
2023-03-06T10:38:32.715Z,16.75
2023-03-06T10:42:34.672Z,11.77
2023-03-06T10:46:44.379Z,16.60
2023-03-06T10:50:46.272Z,13.63
2023-03-06T10:54:50.678Z,15.90
2023-03-06T10:59:19.342Z,12.48
2023-03-06T11:03:24.339Z,15.60
2023-03-06T11:07:29.351Z,16.17
2023-03-06T11:11:37.606Z,16.08
2023-03-06T11:15:40.320Z,17.63
2023-03-06T11:19:43.649Z,16.10
2023-03-06T11:23:47.323Z,12.33
2023-03-06T11:28:27.873Z,17.75
2023-03-06T11:32:36.835Z,13.60
2023-03-06T11:36:56.505Z,16.48
2023-03-06T11:41:01.995Z,12.02
2023-03-06T11:45:34.074Z,14.63
2023-03-06T11:49:44.775Z,15.73
2023-03-06T11:53:48.852Z,14.00
2023-03-06T11:57:55.059Z,16.85
2023-03-06T12:02:02.974Z,13.52
2023-03-06T12:06:29.413Z,15.70
2023-03-06T12:10:41.538Z,12.32
2023-03-06T12:15:34.553Z,14.00
2023-03-06T12:19:39.125Z,15.05
2023-03-06T12:24:02.400Z,15.75
2023-03-06T12:28:29.100Z,17.00
2023-03-06T12:32:55.597Z,12.80
2023-03-06T12:37:42.974Z,16.15
2023-03-06T12:42:23.215Z,16.42
2023-03-06T12:46:28.105Z,16.38
2023-03-06T12:50:33.282Z,14.55
2023-03-06T12:54:40.619Z,16.58
2023-03-06T12:58:51.444Z,17.30
2023-03-06T13:03:11.566Z,14.15
2023-03-06T13:07:27.853Z,17.08
2023-03-06T13:12:03.440Z,17.15
2023-03-06T13:16:32.942Z,16.30
2023-03-06T13:20:46.292Z,16.45
2023-03-06T13:24:49.471Z,14.85
2023-03-06T13:28:54.288Z,16.67
2023-03-06T13:32:56.270Z,13.75
2023-03-06T13:37:16.780Z,15.67
2023-03-06T13:41:21.279Z,14.02
2023-03-06T13:45:29.285Z,21.13
2023-03-06T13:49:31.960Z,13.82
2023-03-06T13:53:46.809Z,15.55
2023-03-06T13:58:14.374Z,13.40
2023-03-06T14:02:39.884Z,14.93
2023-03-06T14:06:51.304Z,12.65
2023-03-06T14:11:07.293Z,17.90
2023-03-06T14:15:38.342Z,14.77
2023-03-06T14:19:42.569Z,14.68
2023-03-06T14:23:46.433Z,13.05
2023-03-06T14:27:54.945Z,13.15
2023-03-06T14:32:00.918Z,15.32
2023-03-06T14:36:09.850Z,15.52
2023-03-06T14:40:13.893Z,13.10
2023-03-06T14:44:26.566Z,13.93
2023-03-06T14:48:42.967Z,17.30
2023-03-06T14:52:46.206Z,16.75
2023-03-06T14:56:54.440Z,13.98
2023-03-06T15:01:01.336Z,13.25
2023-03-06T15:05:11.686Z,17.92
2023-03-06T15:09:27.252Z,16.90
2023-03-06T15:13:31.644Z,14.57
2023-03-06T15:17:43.231Z,16.05
2023-03-06T15:21:48.613Z,11.63
2023-03-06T15:26:01.034Z,10.80
2023-03-06T15:30:27.724Z,12.23
2023-03-06T15:34:30.250Z,8.88
2023-03-06T15:38:41.984Z,12.18
2023-03-06T15:42:43.579Z,14.63
2023-03-06T15:46:45.556Z,12.30
2023-03-06T15:50:47.281Z,7.45
2023-03-06T15:54:50.648Z,10.00
2023-03-06T15:58:54.216Z,11.75
2023-03-06T16:02:57.069Z,11.35
2023-03-06T16:06:58.650Z,13.35
2023-03-06T16:11:00.286Z,13.07
2023-03-06T16:15:05.247Z,12.90
2023-03-06T16:19:25.303Z,15.73
2023-03-06T16:23:28.217Z,14.68
2023-03-06T16:27:30.046Z,10.60
2023-03-06T16:31:41.315Z,15.68
2023-03-06T16:35:44.577Z,13.02
2023-03-06T16:39:46.282Z,15.25
2023-03-06T16:43:49.404Z,13.52
2023-03-06T16:47:51.691Z,12.50
2023-03-06T16:51:54.155Z,13.65
2023-03-06T16:55:56.172Z,14.73
2023-03-06T16:59:57.840Z,15.10
2023-03-06T17:03:59.963Z,12.57
2023-03-06T17:08:01.940Z,16.55
2023-03-06T17:12:03.751Z,13.90
2023-03-06T17:16:06.293Z,12.80
2023-03-06T17:20:08.750Z,13.52
2023-03-06T17:24:11.177Z,14.15
2023-03-06T17:28:13.813Z,14.80
2023-03-06T17:32:15.430Z,14.95
2023-03-06T17:36:19.440Z,15.75
2023-03-06T17:40:21.476Z,19.65
2023-03-06T17:44:23.197Z,15.35
2023-03-06T17:48:24.880Z,19.40
2023-03-06T17:52:26.603Z,20.30
2023-03-06T17:56:28.445Z,23.83
2023-03-06T18:00:30.054Z,20.13
2023-03-06T18:04:31.668Z,21.48
2023-03-06T18:12:36.541Z,16.05
2023-03-06T18:16:38.502Z,14.48
2023-03-06T18:20:41.665Z,16.83
2023-03-06T18:24:43.580Z,18.67
2023-03-06T18:28:48.051Z,19.92
2023-03-06T18:32:49.845Z,21.88
2023-03-06T18:36:53.009Z,18.98
2023-03-06T18:40:54.664Z,21.70
2023-03-06T18:44:56.407Z,22.55
2023-03-06T18:48:58.155Z,20.65
2023-03-06T18:53:00.151Z,18.27
2023-03-06T18:57:01.881Z,16.80
2023-03-06T19:01:08.357Z,21.55
2023-03-06T19:05:10.993Z,20.10
2023-03-06T19:09:13.194Z,20.58
2023-03-06T19:13:15.172Z,22.00
2023-03-06T19:17:17.528Z,25.00
2023-03-06T19:21:21.410Z,20.40
2023-03-06T19:25:23.003Z,25.50
2023-03-06T19:29:24.618Z,24.45
2023-03-06T19:33:26.575Z,23.55
2023-03-06T19:37:30.130Z,27.75
2023-03-06T19:41:33.112Z,22.58
2023-03-06T19:45:36.787Z,23.38
2023-03-06T19:49:38.858Z,26.75
2023-03-06T19:53:40.972Z,22.53
2023-03-06T19:57:43.412Z,22.33
2023-03-06T20:01:45.615Z,24.05
2023-03-06T20:05:47.635Z,23.25
2023-03-06T20:09:50.124Z,23.95
2023-03-06T20:13:51.789Z,23.80
2023-03-06T20:17:56.410Z,20.45
2023-03-06T20:21:58.249Z,22.75
2023-03-06T20:26:05.171Z,26.23
2023-03-06T20:30:08.696Z,23.35
2023-03-06T20:34:10.935Z,22.25
2023-03-06T20:38:13.082Z,24.65
2023-03-06T20:42:15.087Z,25.20
2023-03-06T20:46:18.144Z,23.67
2023-03-06T20:50:19.731Z,22.13
2023-03-06T20:54:21.972Z,22.77
2023-03-06T20:58:26.446Z,25.77
2023-03-06T21:02:28.056Z,23.55
2023-03-06T21:06:30.613Z,26.70
2023-03-06T21:10:32.188Z,24.88
2023-03-06T21:14:34.508Z,22.13
2023-03-06T21:18:36.997Z,24.98
2023-03-06T21:22:38.847Z,24.63
2023-03-06T21:26:41.334Z,22.63
2023-03-06T21:30:44.566Z,27.88
2023-03-06T21:35:09.420Z,23.85
2023-03-06T21:39:30.394Z,24.67
2023-03-06T21:43:31.935Z,24.67
2023-03-06T21:47:38.631Z,22.90
2023-03-06T21:51:40.599Z,25.35
2023-03-06T21:55:42.146Z,20.85
2023-03-06T21:59:43.700Z,23.27
2023-03-06T22:03:45.546Z,22.67
2023-03-06T22:07:47.172Z,27.73
2023-03-06T22:11:48.730Z,28.55
2023-03-06T22:15:55.176Z,28.58
2023-03-06T22:24:53.521Z,30.80
2023-03-06T22:28:56.745Z,30.17
2023-03-06T22:32:58.673Z,32.75
2023-03-06T22:37:00.606Z,29.88
2023-03-06T22:41:02.914Z,29.03
2023-03-06T22:45:05.243Z,34.22
2023-03-06T22:49:06.999Z,29.45
2023-03-06T22:53:08.610Z,32.70
2023-03-06T22:57:10.148Z,25.52
2023-03-06T23:01:19.607Z,28.50
2023-03-06T23:05:21.482Z,29.70
2023-03-06T23:09:23.375Z,29.10
2023-03-06T23:13:43.364Z,27.27
2023-03-06T23:18:04.321Z,27.55
2023-03-06T23:22:24.479Z,27.00
2023-03-06T23:26:44.339Z,38.17
2023-03-06T23:30:45.944Z,29.42
2023-03-06T23:34:50.398Z,34.22
2023-03-06T23:38:52.015Z,31.67
2023-03-06T23:42:53.603Z,33.10
2023-03-06T23:46:55.147Z,30.75
2023-03-06T23:50:57.228Z,31.33
2023-03-06T23:54:58.939Z,33.30
2023-03-06T23:59:00.575Z,29.30
